createdAt,value
2018-04-10T00:00:28.858Z,6.40
2018-04-10T00:02:59.333Z,7.10
2018-04-10T00:05:29.231Z,10.63
2018-04-10T00:07:58.967Z,7.43
2018-04-10T00:10:28.783Z,7.60
2018-04-10T00:12:58.629Z,10.13
2018-04-10T00:15:28.400Z,8.37
2018-04-10T00:17:58.224Z,11.53
2018-04-10T00:20:28.004Z,10.20
2018-04-10T00:22:57.784Z,7.27
2018-04-10T00:25:28.390Z,8.17
2018-04-10T00:27:58.229Z,8.03
2018-04-10T00:30:27.982Z,9.57
2018-04-10T00:32:58.150Z,10.17
2018-04-10T00:35:28.828Z,12.77
2018-04-10T00:37:58.644Z,12.63
2018-04-10T00:40:28.442Z,14.20
2018-04-10T00:42:58.328Z,11.93
2018-04-10T00:45:28.962Z,14.60
2018-04-10T00:47:59.521Z,13.00
2018-04-10T00:50:30.255Z,13.10
2018-04-10T00:53:11.254Z,15.97
2018-04-10T00:55:40.995Z,19.07
2018-04-10T00:58:11.616Z,14.27
2018-04-10T01:00:41.379Z,16.13
2018-04-10T01:03:12.280Z,15.40
2018-04-10T01:05:42.875Z,15.10
2018-04-10T01:08:13.152Z,12.43
2018-04-10T01:10:44.180Z,11.03
2018-04-10T01:13:15.421Z,22.40
2018-04-10T01:15:45.735Z,12.10
2018-04-10T01:18:16.276Z,19.80
2018-04-10T01:20:47.659Z,16.33
2018-04-10T01:23:18.919Z,13.77
2018-04-10T01:25:50.030Z,17.13
2018-04-10T01:28:20.676Z,14.70
2018-04-10T01:30:51.164Z,11.30
2018-04-10T01:33:22.453Z,15.70
2018-04-10T01:35:52.644Z,12.83
2018-04-10T01:38:23.939Z,20.90
2018-04-10T01:40:54.146Z,14.10
2018-04-10T01:43:26.422Z,12.40
2018-04-10T01:45:56.618Z,14.10
2018-04-10T01:48:27.667Z,18.57
2018-04-10T01:50:57.994Z,20.70
2018-04-10T01:53:28.322Z,17.20
2018-04-10T01:55:58.704Z,16.40
2018-04-10T01:58:28.890Z,18.13
2018-04-10T02:00:59.167Z,15.43
2018-04-10T02:03:29.137Z,11.77
2018-04-10T02:05:59.359Z,15.90
2018-04-10T02:08:29.525Z,10.77
2018-04-10T02:11:01.027Z,11.93
2018-04-10T02:13:31.441Z,10.10
2018-04-10T02:16:01.751Z,11.83
2018-04-10T02:18:31.995Z,13.77
2018-04-10T02:21:02.172Z,15.10
2018-04-10T02:23:33.024Z,15.33
2018-04-10T02:26:03.429Z,12.47
2018-04-10T02:28:34.309Z,12.30
2018-04-10T02:31:04.481Z,12.33
2018-04-10T02:33:34.760Z,12.17
2018-04-10T02:36:05.780Z,14.17
2018-04-10T02:38:35.677Z,13.57
2018-04-10T02:41:06.761Z,14.30
2018-04-10T02:43:38.107Z,17.33
2018-04-10T02:46:09.221Z,13.90
2018-04-10T02:48:40.733Z,22.00
2018-04-10T02:51:11.968Z,14.57
2018-04-10T02:53:42.140Z,14.40
2018-04-10T02:56:12.542Z,18.67
2018-04-10T03:01:18.658Z,17.23
2018-04-10T03:03:48.981Z,11.00
2018-04-10T03:06:20.042Z,16.53
2018-04-10T03:08:50.095Z,15.00
2018-04-10T03:11:21.223Z,14.07
2018-04-10T03:13:52.153Z,11.80
2018-04-10T03:16:22.564Z,13.00
2018-04-10T03:18:52.575Z,11.30
2018-04-10T03:21:22.783Z,14.70
2018-04-10T03:23:52.818Z,14.27
2018-04-10T03:26:23.100Z,14.33
2018-04-10T03:28:53.959Z,12.57
2018-04-10T03:31:24.272Z,11.90
2018-04-10T03:33:54.852Z,12.77
2018-04-10T03:36:24.547Z,16.73
2018-04-10T03:38:54.301Z,14.83
2018-04-10T03:41:24.928Z,18.40
2018-04-10T03:43:55.589Z,13.80
2018-04-10T03:46:25.787Z,16.57
2018-04-10T03:48:56.627Z,14.20
2018-04-10T03:51:27.387Z,14.43
2018-04-10T03:53:57.476Z,16.87
2018-04-10T03:56:28.641Z,14.70
2018-04-10T03:58:58.388Z,13.47
2018-04-10T04:01:28.347Z,15.50
2018-04-10T04:03:59.235Z,13.20
2018-04-10T04:06:30.551Z,13.97
2018-04-10T04:09:01.964Z,11.77
2018-04-10T04:11:32.136Z,16.27
2018-04-10T04:14:02.419Z,15.87
2018-04-10T04:16:44.093Z,13.80
2018-04-10T04:19:25.733Z,22.40
2018-04-10T04:22:17.597Z,22.40
2018-04-10T04:24:48.312Z,22.20
2018-04-10T04:27:18.505Z,19.57
2018-04-10T04:29:48.458Z,21.03
2018-04-10T04:32:18.749Z,19.10
2018-04-10T04:34:49.108Z,19.13
2018-04-10T04:37:19.295Z,18.50
2018-04-10T04:39:49.150Z,24.47
2018-04-10T04:42:20.834Z,17.97
2018-04-10T04:44:51.218Z,20.83
2018-04-10T04:47:21.509Z,22.10
2018-04-10T04:49:51.686Z,16.30
2018-04-10T04:52:21.845Z,17.67
2018-04-10T04:54:52.825Z,17.17
2018-04-10T04:57:23.011Z,17.97
2018-04-10T04:59:52.950Z,18.87
2018-04-10T05:02:23.685Z,18.33
2018-04-10T05:04:53.876Z,18.40
2018-04-10T05:07:24.204Z,20.10
2018-04-10T05:09:54.582Z,18.97
2018-04-10T05:12:24.856Z,18.13
2018-04-10T05:14:55.010Z,19.33
2018-04-10T05:17:25.198Z,15.90
2018-04-10T05:19:55.352Z,18.67
2018-04-10T05:22:25.430Z,16.10
2018-04-10T05:24:55.552Z,15.90
2018-04-10T05:27:25.987Z,15.63
2018-04-10T05:29:56.127Z,14.90
2018-04-10T05:32:26.321Z,14.50
2018-04-10T05:34:56.483Z,13.97
2018-04-10T05:37:26.674Z,16.10
2018-04-10T05:39:56.710Z,13.60
2018-04-10T05:42:26.991Z,16.03
2018-04-10T05:44:57.250Z,16.20
2018-04-10T05:47:27.473Z,13.50
2018-04-10T05:49:58.184Z,15.87
2018-04-10T05:52:28.168Z,19.53
2018-04-10T05:54:59.252Z,12.70
2018-04-10T05:57:30.145Z,17.60
2018-04-10T06:00:00.584Z,16.30
2018-04-10T06:02:31.205Z,14.07
2018-04-10T06:05:01.388Z,13.50
2018-04-10T06:07:31.382Z,19.80
2018-04-10T06:10:02.665Z,19.57
2018-04-10T06:12:33.900Z,16.23
2018-04-10T06:15:04.797Z,20.67
2018-04-10T06:17:34.694Z,18.50
2018-04-10T06:20:08.623Z,17.17
2018-04-10T06:22:41.337Z,19.80
2018-04-10T06:25:11.706Z,16.77
2018-04-10T06:27:42.619Z,18.23
2018-04-10T06:30:12.441Z,18.80
2018-04-10T06:32:42.224Z,14.03
2018-04-10T06:35:12.615Z,16.47
2018-04-10T06:37:42.426Z,20.50
2018-04-10T06:40:12.201Z,16.33
2018-04-10T06:42:42.251Z,15.43
2018-04-10T06:45:13.216Z,19.80
2018-04-10T06:47:43.338Z,17.03
2018-04-10T06:50:13.555Z,18.33
2018-04-10T06:52:43.753Z,18.77
2018-04-10T06:55:14.688Z,21.10
2018-04-10T06:57:45.646Z,19.37
2018-04-10T07:00:15.433Z,20.87
2018-04-10T07:02:46.175Z,22.30
2018-04-10T07:05:15.916Z,20.00
2018-04-10T07:07:45.748Z,27.27
2018-04-10T07:10:15.536Z,22.53
2018-04-10T07:12:45.323Z,22.60
2018-04-10T07:15:16.494Z,21.43
2018-04-10T07:17:46.251Z,22.57
2018-04-10T07:20:16.091Z,22.97
2018-04-10T07:22:45.897Z,17.60
2018-04-10T07:25:16.466Z,27.10
2018-04-10T07:27:46.274Z,19.03
2018-04-10T07:30:16.873Z,22.40
2018-04-10T07:32:47.444Z,19.20
2018-04-10T07:35:17.176Z,18.43
2018-04-10T07:37:47.039Z,20.20
2018-04-10T07:40:16.808Z,21.77
2018-04-10T07:42:46.626Z,20.10
2018-04-10T07:45:16.864Z,15.33
2018-04-10T07:47:47.457Z,19.07
2018-04-10T07:50:17.319Z,20.27
2018-04-10T07:52:47.133Z,18.37
2018-04-10T07:55:17.859Z,17.47
2018-04-10T07:57:48.454Z,16.80
2018-04-10T08:00:18.632Z,16.70
2018-04-10T08:02:48.366Z,16.37
2018-04-10T08:05:18.157Z,21.80
2018-04-10T08:07:47.939Z,15.53
2018-04-10T08:10:19.292Z,15.70
2018-04-10T08:12:51.254Z,16.20
2018-04-10T08:15:22.191Z,20.17
2018-04-10T08:17:54.447Z,17.50
2018-04-10T08:20:24.316Z,16.37
2018-04-10T08:22:54.061Z,16.47
2018-04-10T08:25:23.826Z,22.93
2018-04-10T08:27:53.606Z,16.50
2018-04-10T08:32:58.070Z,13.90
2018-04-10T08:35:28.263Z,14.97
2018-04-10T08:37:58.824Z,21.30
2018-04-10T08:40:28.601Z,14.43
2018-04-10T08:43:00.596Z,14.10
2018-04-10T08:45:30.381Z,15.97
2018-04-10T08:48:02.177Z,16.70
2018-04-10T08:50:32.941Z,19.63
2018-04-10T08:53:02.712Z,17.80
2018-04-10T08:55:34.913Z,14.47
2018-04-10T08:58:04.697Z,15.33
2018-04-10T09:00:34.952Z,12.90
2018-04-10T09:03:05.135Z,15.23
2018-04-10T09:05:35.477Z,16.73
2018-04-10T09:08:06.778Z,13.83
2018-04-10T09:10:40.465Z,14.70
2018-04-10T09:13:12.697Z,17.90
2018-04-10T09:15:42.580Z,17.00
2018-04-10T09:18:13.021Z,15.43
2018-04-10T09:20:43.479Z,20.90
2018-04-10T09:23:13.254Z,15.30
2018-04-10T09:25:43.058Z,18.47
2018-04-10T09:28:13.554Z,15.33
2018-04-10T09:30:44.007Z,14.43
2018-04-10T09:33:14.155Z,18.07
2018-04-10T09:35:45.358Z,14.63
2018-04-10T09:38:17.094Z,17.53
2018-04-10T09:40:47.683Z,16.43
2018-04-10T09:43:17.466Z,18.20
2018-04-10T09:45:48.103Z,20.80
2018-04-10T09:48:17.867Z,22.57
2018-04-10T09:50:48.533Z,17.83
2018-04-10T09:53:20.071Z,22.13
2018-04-10T09:55:50.975Z,23.17
2018-04-10T09:58:21.885Z,21.63
2018-04-10T10:00:54.709Z,20.40
2018-04-10T10:03:24.718Z,16.30
2018-04-10T10:05:54.508Z,19.00
2018-04-10T10:08:24.294Z,20.90
2018-04-10T10:10:54.863Z,21.60
2018-04-10T10:13:24.708Z,18.37
2018-04-10T10:15:54.568Z,26.30
2018-04-10T10:18:24.299Z,32.87
2018-04-10T10:20:54.088Z,21.70
2018-04-10T10:23:23.880Z,23.80
2018-04-10T10:25:53.663Z,27.33
2018-04-10T10:28:23.475Z,24.20
2018-04-10T10:30:53.242Z,28.87
2018-04-10T10:33:22.998Z,20.10
2018-04-10T10:35:53.071Z,20.77
2018-04-10T10:38:22.899Z,24.77
2018-04-10T10:40:52.721Z,24.20
2018-04-10T10:43:22.525Z,22.63
2018-04-10T10:45:52.393Z,19.03
2018-04-10T10:48:22.918Z,16.57
2018-04-10T10:50:53.408Z,18.00
2018-04-10T10:53:23.193Z,12.63
2018-04-10T10:55:52.994Z,11.73
2018-04-10T10:58:22.987Z,12.37
2018-04-10T11:00:53.517Z,16.70
2018-04-10T11:03:24.092Z,13.90
2018-04-10T11:05:54.166Z,5.40
2018-04-10T11:08:24.691Z,6.60
2018-04-10T11:10:55.973Z,6.87
2018-04-10T11:13:25.747Z,6.23
2018-04-10T11:15:56.383Z,4.87
2018-04-10T11:18:26.955Z,6.10
2018-04-10T11:20:56.693Z,10.60
2018-04-10T11:23:26.715Z,7.60
2018-04-10T11:25:56.511Z,9.10
2018-04-10T11:28:26.258Z,8.23
2018-04-10T11:30:56.786Z,14.60
2018-04-10T11:33:27.328Z,11.30
2018-04-10T11:35:58.112Z,8.32
2018-04-10T11:38:27.931Z,8.50
2018-04-10T11:40:57.719Z,12.95
2018-04-10T11:43:27.587Z,6.70
2018-04-10T11:45:58.124Z,4.37
2018-04-10T11:48:28.650Z,8.57
2018-04-10T11:50:59.204Z,7.55
2018-04-10T11:53:28.994Z,10.00
2018-04-10T11:55:58.825Z,6.80
2018-04-10T11:58:29.232Z,7.70
2018-04-10T12:00:59.702Z,7.73
2018-04-10T12:03:29.490Z,4.07
2018-04-10T12:05:59.338Z,11.02
2018-04-10T12:08:29.145Z,4.62
2018-04-10T12:10:58.906Z,3.97
2018-04-10T12:13:29.481Z,8.37
2018-04-10T12:15:59.246Z,5.00
2018-04-10T12:18:29.795Z,5.50
2018-04-10T12:20:59.568Z,3.23
2018-04-10T12:23:29.367Z,2.60
2018-04-10T12:25:59.140Z,5.30
2018-04-10T12:28:29.289Z,6.97
2018-04-10T12:30:59.174Z,5.90
2018-04-10T12:33:29.781Z,7.67
2018-04-10T12:36:00.373Z,2.10
2018-04-10T12:38:30.343Z,4.80
2018-04-10T12:41:00.102Z,2.50
2018-04-10T12:43:29.851Z,4.03
2018-04-10T12:46:00.425Z,7.77
2018-04-10T12:48:30.699Z,3.53
2018-04-10T12:51:01.373Z,4.90
2018-04-10T12:53:31.154Z,3.57
2018-04-10T12:56:00.947Z,5.90
2018-04-10T12:58:31.586Z,4.90
2018-04-10T13:01:01.526Z,6.97
2018-04-10T13:03:32.121Z,2.50
2018-04-10T13:06:02.722Z,3.77
2018-04-10T13:08:32.697Z,6.93
2018-04-10T13:11:02.538Z,2.33
2018-04-10T13:13:32.326Z,4.80
2018-04-10T13:16:02.063Z,2.00
2018-04-10T13:18:32.217Z,4.60
2018-04-10T13:21:03.000Z,4.33
2018-04-10T13:23:33.585Z,6.13
2018-04-10T13:26:03.376Z,4.90
2018-04-10T13:28:34.136Z,5.63
2018-04-10T13:31:03.970Z,6.07
2018-04-10T13:33:34.532Z,2.67
2018-04-10T13:36:04.309Z,3.57
2018-04-10T13:38:34.829Z,6.33
2018-04-10T13:41:06.038Z,6.90
2018-04-10T13:43:36.000Z,4.03
2018-04-10T13:46:05.785Z,4.28
2018-04-10T13:48:35.927Z,5.20
2018-04-10T13:51:05.764Z,5.93
2018-04-10T13:53:35.558Z,4.53
2018-04-10T13:56:06.113Z,5.20
2018-04-10T13:58:36.072Z,2.73
2018-04-10T14:01:05.888Z,4.75
2018-04-10T14:03:36.468Z,4.53
2018-04-10T14:06:06.348Z,3.73
2018-04-10T14:08:37.905Z,4.63
2018-04-10T14:11:07.830Z,4.40
2018-04-10T14:13:38.364Z,3.50
2018-04-10T14:16:08.250Z,6.53
2018-04-10T14:18:38.875Z,8.75
2018-04-10T14:21:13.315Z,8.70
2018-04-10T14:29:25.297Z,4.43
2018-04-10T14:31:59.744Z,7.05
2018-04-10T14:34:32.747Z,5.82
2018-04-10T14:37:03.549Z,7.82
2018-04-10T14:39:33.730Z,2.57
2018-04-10T14:42:03.616Z,18.83
2018-04-10T14:44:34.243Z,11.97
2018-04-10T14:47:04.897Z,3.07
2018-04-10T14:49:35.554Z,5.82
2018-04-10T14:52:06.617Z,3.67
2018-04-10T14:54:43.609Z,8.63
2018-04-10T15:04:15.599Z,4.87
2018-04-10T15:06:45.479Z,8.17
2018-04-10T15:09:15.786Z,8.77
2018-04-10T15:11:46.055Z,13.07
2018-04-10T15:14:16.634Z,4.40
2018-04-10T15:16:47.272Z,5.10
2018-04-10T15:19:17.903Z,4.18
2018-04-10T15:21:48.483Z,5.97
2018-04-10T15:24:18.299Z,4.60
2018-04-10T15:26:48.460Z,8.53
2018-04-10T15:29:19.059Z,9.93
2018-04-10T15:31:48.923Z,11.90
2018-04-10T15:34:19.472Z,7.47
2018-04-10T15:36:49.718Z,3.45
2018-04-10T15:39:19.590Z,5.90
2018-04-10T15:41:49.385Z,6.10
2018-04-10T15:44:20.440Z,4.37
2018-04-10T15:46:51.894Z,9.27
2018-04-10T15:49:22.313Z,8.57
2018-04-10T15:51:53.290Z,4.23
2018-04-10T15:54:24.610Z,6.97
2018-04-10T15:56:55.706Z,3.75
2018-04-10T15:59:25.765Z,12.43
2018-04-10T16:01:56.024Z,6.50
2018-04-10T16:04:25.980Z,4.93
2018-04-10T16:06:56.375Z,6.57
2018-04-10T16:09:27.226Z,3.70
2018-04-10T16:12:01.570Z,3.60
2018-04-10T16:14:32.663Z,10.43
2018-04-10T16:17:02.727Z,7.68
2018-04-10T16:19:34.287Z,4.83
2018-04-10T16:22:04.960Z,6.68
2018-04-10T16:24:35.482Z,5.83
2018-04-10T16:27:06.501Z,9.87
2018-04-10T16:29:38.015Z,8.10
2018-04-10T16:32:08.166Z,3.75
2018-04-10T16:34:39.482Z,3.83
2018-04-10T16:37:09.803Z,4.07
2018-04-10T16:39:39.912Z,2.60
2018-04-10T16:42:09.752Z,6.30
2018-04-10T16:44:39.963Z,5.33
2018-04-10T16:47:09.877Z,4.03
2018-04-10T16:49:39.808Z,4.00
2018-04-10T16:52:09.901Z,2.17
2018-04-10T16:54:40.171Z,2.77
2018-04-10T16:57:10.458Z,3.55
2018-04-10T16:59:40.309Z,3.45
2018-04-10T17:02:10.956Z,2.70
2018-04-10T17:04:41.136Z,2.20
2018-04-10T17:07:11.208Z,3.78
2018-04-10T17:09:41.240Z,2.80
2018-04-10T17:12:11.710Z,3.17
2018-04-10T17:14:42.642Z,2.30
2018-04-10T17:17:13.999Z,2.50
2018-04-10T17:19:45.421Z,3.60
2018-04-10T17:22:15.767Z,5.37
2018-04-10T17:24:47.238Z,2.83
2018-04-10T17:27:17.342Z,3.60
2018-04-10T17:29:48.528Z,2.90
2018-04-10T17:32:18.397Z,2.90
2018-04-10T17:34:49.592Z,2.73
2018-04-10T17:37:19.320Z,2.85
2018-04-10T17:39:50.535Z,2.63
2018-04-10T17:42:20.513Z,3.83
2018-04-10T17:44:51.909Z,2.33
2018-04-10T17:47:22.435Z,3.12
2018-04-10T17:49:52.865Z,2.45
2018-04-10T17:52:23.559Z,3.13
2018-04-10T17:54:55.541Z,3.60
2018-04-10T17:57:25.488Z,3.03
2018-04-10T17:59:55.470Z,4.27
2018-04-10T18:02:25.654Z,2.17
2018-04-10T18:04:55.919Z,4.55
2018-04-10T18:07:26.070Z,2.90
2018-04-10T18:09:57.200Z,2.50
2018-04-10T18:12:27.371Z,4.77
2018-04-10T18:14:57.512Z,3.30
2018-04-10T18:17:27.858Z,3.80
2018-04-10T18:19:58.288Z,2.40
2018-04-10T18:22:28.239Z,2.83
2018-04-10T18:24:59.132Z,2.27
2018-04-10T18:27:29.068Z,2.77
2018-04-10T18:29:59.277Z,2.15
2018-04-10T18:32:30.430Z,3.33
2018-04-10T18:35:00.358Z,2.92
2018-04-10T18:37:31.730Z,2.58
2018-04-10T18:40:01.980Z,6.10
2018-04-10T18:42:32.416Z,2.43
2018-04-10T18:45:02.919Z,5.50
2018-04-10T18:47:34.374Z,2.90
2018-04-10T18:50:06.391Z,3.37
2018-04-10T18:52:36.620Z,5.40
2018-04-10T18:55:07.902Z,2.90
2018-04-10T18:57:39.527Z,3.50
2018-04-10T19:00:09.924Z,3.77
2018-04-10T19:02:40.765Z,3.60
2018-04-10T19:05:10.632Z,3.50
2018-04-10T19:07:41.140Z,4.35
2018-04-10T19:10:10.873Z,5.10
2018-04-10T19:12:40.715Z,3.70
2018-04-10T19:15:10.876Z,3.42
2018-04-10T19:17:41.028Z,3.42
2018-04-10T19:20:11.242Z,4.00
2018-04-10T19:22:41.522Z,3.33
2018-04-10T19:25:12.121Z,4.50
2018-04-10T19:27:42.338Z,3.92
2018-04-10T19:30:13.186Z,4.07
2018-04-10T19:32:43.326Z,3.92
2018-04-10T19:35:13.969Z,4.53
2018-04-10T19:37:43.815Z,3.65
2018-04-10T19:40:14.144Z,4.83
2018-04-10T19:42:44.663Z,5.03
2018-04-10T19:45:14.503Z,4.30
2018-04-10T19:47:45.132Z,6.50
2018-04-10T19:50:16.372Z,6.68
2018-04-10T19:52:47.027Z,5.17
2018-04-10T19:55:17.231Z,5.03
2018-04-10T19:57:48.243Z,5.07
2018-04-10T20:00:18.544Z,5.97
2018-04-10T20:02:49.159Z,4.70
2018-04-10T20:05:19.631Z,5.03
2018-04-10T20:07:50.310Z,4.60
2018-04-10T20:10:20.681Z,5.40
2018-04-10T20:12:50.889Z,8.73
2018-04-10T20:15:21.211Z,4.80
2018-04-10T20:17:51.808Z,6.57
2018-04-10T20:20:22.174Z,5.18
2018-04-10T20:22:52.709Z,5.60
2018-04-10T20:25:22.559Z,6.05
2018-04-10T20:27:53.389Z,6.50
2018-04-10T20:30:23.194Z,5.35
2018-04-10T20:32:55.238Z,5.63
2018-04-10T20:35:25.000Z,6.22
2018-04-10T20:37:54.843Z,6.90
2018-04-10T20:40:24.653Z,7.20
2018-04-10T20:42:54.380Z,6.53
2018-04-10T20:45:24.200Z,9.30
2018-04-10T20:47:55.096Z,8.13
2018-04-10T20:50:25.219Z,5.03
2018-04-10T20:52:55.573Z,5.63
2018-04-10T20:55:25.326Z,6.13
2018-04-10T20:57:57.165Z,5.57
2018-04-10T21:00:28.331Z,6.10
2018-04-10T21:02:58.966Z,6.93
2018-04-10T21:05:29.859Z,5.97
2018-04-10T21:08:01.437Z,5.93
2018-04-10T21:10:32.522Z,9.93
2018-04-10T21:13:02.901Z,7.43
2018-04-10T21:15:33.941Z,6.40
2018-04-10T21:18:04.481Z,9.67
2018-04-10T21:20:35.631Z,5.87
2018-04-10T21:23:06.470Z,7.12
2018-04-10T21:25:36.831Z,6.57
2018-04-10T21:28:07.926Z,5.87
2018-04-10T21:30:39.234Z,6.25
2018-04-10T21:33:09.326Z,8.10
2018-04-10T21:35:39.323Z,5.60
2018-04-10T21:38:09.825Z,7.17
2018-04-10T21:40:40.057Z,6.20
2018-04-10T21:46:06.059Z,7.07
2018-04-10T21:48:35.890Z,5.90
2018-04-10T21:51:05.663Z,6.50
2018-04-10T21:53:35.465Z,7.03
2018-04-10T21:56:05.400Z,7.53
2018-04-10T21:58:35.455Z,6.23
2018-04-10T22:01:06.063Z,6.27
2018-04-10T22:03:36.173Z,8.40
2018-04-10T22:06:06.109Z,6.13
2018-04-10T22:08:35.940Z,5.60
2018-04-10T22:11:06.494Z,8.82
2018-04-10T22:13:36.263Z,5.40
2018-04-10T22:16:06.161Z,8.20
2018-04-10T22:18:35.958Z,8.20
2018-04-10T22:21:05.826Z,6.00
2018-04-10T22:23:35.847Z,6.32
2018-04-10T22:26:05.878Z,5.73
2018-04-10T22:28:37.032Z,5.66
2018-04-10T22:31:06.799Z,5.67
2018-04-10T22:33:36.613Z,5.37
2018-04-10T22:36:06.659Z,5.67
2018-04-10T22:38:40.274Z,6.38
2018-04-10T22:41:10.133Z,6.23
2018-04-10T22:43:40.699Z,6.50
2018-04-10T22:46:11.739Z,6.07
2018-04-10T22:48:43.075Z,7.00
2018-04-10T22:51:13.687Z,6.17
2018-04-10T22:53:44.285Z,6.07
2018-04-10T22:56:14.673Z,6.60
2018-04-10T22:58:45.004Z,5.95
2018-04-10T23:01:15.595Z,5.47
2018-04-10T23:03:46.127Z,6.40
2018-04-10T23:06:17.197Z,6.93
2018-04-10T23:08:47.852Z,5.53
2018-04-10T23:11:18.180Z,6.00
2018-04-10T23:13:48.293Z,6.47
2018-04-10T23:16:18.518Z,5.77
2018-04-10T23:18:48.643Z,5.60
2018-04-10T23:21:19.147Z,6.67
2018-04-10T23:23:51.105Z,5.77
2018-04-10T23:26:22.472Z,5.80
2018-04-10T23:28:52.914Z,13.53
2018-04-10T23:31:23.720Z,5.23
2018-04-10T23:33:54.178Z,4.90
2018-04-10T23:36:24.341Z,4.80
2018-04-10T23:38:54.476Z,4.60
2018-04-10T23:41:25.386Z,5.33
2018-04-10T23:43:55.478Z,5.30
2018-04-10T23:46:25.608Z,5.07
2018-04-10T23:48:57.084Z,5.20
2018-04-10T23:51:28.193Z,6.50
2018-04-10T23:53:58.589Z,5.47
2018-04-10T23:56:29.983Z,4.35
2018-04-10T23:59:00.412Z,8.27
